createdAt,value
2022-11-15T00:00:21.972Z,0
2022-11-15T00:01:19.189Z,0
2022-11-15T00:02:19.544Z,0
2022-11-15T00:03:19.169Z,0
2022-11-15T00:04:19.176Z,0
2022-11-15T00:05:19.219Z,0
2022-11-15T00:06:19.468Z,0
2022-11-15T00:07:58.905Z,0
2022-11-15T00:08:19.489Z,0
2022-11-15T00:09:19.185Z,0
2022-11-15T00:10:22.354Z,0
2022-11-15T00:11:22.012Z,0
2022-11-15T00:12:19.209Z,0
2022-11-15T00:13:19.263Z,0
2022-11-15T00:14:19.229Z,0
2022-11-15T00:15:19.209Z,0
2022-11-15T00:16:19.188Z,0
2022-11-15T00:17:21.948Z,0
2022-11-15T00:18:19.030Z,0
2022-11-15T00:19:19.192Z,0
2022-11-15T00:20:19.106Z,0
2022-11-15T00:21:21.687Z,0
2022-11-15T00:22:22.193Z,0
2022-11-15T00:23:19.193Z,0
2022-11-15T00:24:19.205Z,0
2022-11-15T00:25:20.237Z,0
2022-11-15T00:26:19.226Z,0
2022-11-15T00:27:19.442Z,0
2022-11-15T00:28:22.053Z,0
2022-11-15T00:29:19.213Z,0
2022-11-15T00:30:19.312Z,0
2022-11-15T00:31:19.236Z,0
2022-11-15T00:32:19.214Z,0
2022-11-15T00:33:22.225Z,0
2022-11-15T00:34:19.209Z,0
2022-11-15T00:35:19.235Z,0
2022-11-15T00:36:19.213Z,0
2022-11-15T00:37:19.250Z,0
2022-11-15T00:38:19.226Z,0
2022-11-15T00:39:22.039Z,0
2022-11-15T00:40:19.257Z,0
2022-11-15T00:41:19.227Z,0
2022-11-15T00:42:19.243Z,0
2022-11-15T00:43:19.213Z,0
2022-11-15T00:44:20.261Z,0
2022-11-15T00:45:19.241Z,0
2022-11-15T00:46:19.280Z,0
2022-11-15T00:47:19.234Z,0
2022-11-15T00:48:19.323Z,0
2022-11-15T00:49:19.226Z,0
2022-11-15T00:50:25.385Z,0
2022-11-15T00:51:19.218Z,0
2022-11-15T00:52:19.245Z,0
2022-11-15T00:53:19.270Z,0
2022-11-15T00:54:19.242Z,0
2022-11-15T00:55:22.106Z,0
2022-11-15T00:56:19.239Z,0
2022-11-15T00:57:19.245Z,0
2022-11-15T00:58:19.256Z,0
2022-11-15T00:59:19.261Z,0
2022-11-15T01:00:19.360Z,0
2022-11-15T01:01:19.558Z,0
2022-11-15T01:02:19.313Z,0
2022-11-15T01:03:19.250Z,0
2022-11-15T01:04:19.432Z,0
2022-11-15T01:05:19.266Z,0
2022-11-15T01:06:22.319Z,0
2022-11-15T01:07:19.524Z,0
2022-11-15T01:08:19.282Z,0
2022-11-15T01:09:19.283Z,0
2022-11-15T01:10:19.315Z,0
2022-11-15T01:11:19.249Z,0
2022-11-15T01:12:19.292Z,0
2022-11-15T01:13:19.265Z,0
2022-11-15T01:14:25.461Z,0
2022-11-15T01:15:19.541Z,0
2022-11-15T01:16:19.293Z,0
2022-11-15T01:17:22.489Z,0
2022-11-15T01:18:19.258Z,0
2022-11-15T01:19:19.249Z,0
2022-11-15T01:20:19.301Z,0
2022-11-15T01:21:22.361Z,0
2022-11-15T01:22:19.280Z,0
2022-11-15T01:23:19.258Z,0
2022-11-15T01:24:19.259Z,0
2022-11-15T01:25:19.315Z,0
2022-11-15T01:26:19.265Z,0
2022-11-15T01:27:19.271Z,0
2022-11-15T01:28:22.344Z,0
2022-11-15T01:29:19.284Z,0
2022-11-15T01:30:19.350Z,0
2022-11-15T01:31:19.270Z,0
2022-11-15T01:32:19.279Z,0
2022-11-15T01:33:19.377Z,0
2022-11-15T01:34:19.287Z,0
2022-11-15T01:35:19.305Z,0
2022-11-15T01:36:19.301Z,0
2022-11-15T01:37:19.297Z,0
2022-11-15T01:38:19.288Z,0
2022-11-15T01:39:20.490Z,0
2022-11-15T01:40:19.313Z,0
2022-11-15T01:41:19.308Z,0
2022-11-15T01:42:19.378Z,0
2022-11-15T01:43:19.293Z,0
2022-11-15T01:44:22.158Z,0
2022-11-15T01:45:19.466Z,0
2022-11-15T01:46:19.347Z,0
2022-11-15T01:47:19.297Z,0
2022-11-15T01:48:19.302Z,0
2022-11-15T01:49:19.377Z,0
2022-11-15T01:50:22.092Z,0
2022-11-15T01:51:19.322Z,0
2022-11-15T01:52:19.304Z,0
2022-11-15T01:53:19.335Z,0
2022-11-15T01:54:19.302Z,0
2022-11-15T01:55:20.539Z,0
2022-11-15T01:56:19.310Z,0
2022-11-15T01:57:19.360Z,0
2022-11-15T01:58:19.321Z,0
2022-11-15T01:59:19.409Z,0
2022-11-15T02:00:19.341Z,0
2022-11-15T02:01:19.939Z,0
2022-11-15T02:02:19.334Z,0
2022-11-15T02:03:19.312Z,0
2022-11-15T02:04:19.318Z,0
2022-11-15T02:05:19.390Z,0
2022-11-15T02:06:22.075Z,0
2022-11-15T02:07:19.733Z,0
2022-11-15T02:08:19.333Z,0
2022-11-15T02:09:20.365Z,0
2022-11-15T02:10:19.423Z,0
2022-11-15T02:11:19.343Z,0
2022-11-15T02:12:19.346Z,0
2022-11-15T02:13:19.356Z,0
2022-11-15T02:14:19.339Z,0
2022-11-15T02:15:19.366Z,0
2022-11-15T02:16:19.350Z,0
2022-11-15T02:17:19.342Z,0
2022-11-15T02:18:19.391Z,0
2022-11-15T02:19:19.343Z,0
2022-11-15T02:20:19.396Z,0
2022-11-15T02:21:19.383Z,0
2022-11-15T02:22:22.124Z,0
2022-11-15T02:23:19.371Z,0
2022-11-15T02:24:19.344Z,0
2022-11-15T02:25:19.365Z,0
2022-11-15T02:26:19.359Z,0
2022-11-15T02:27:19.421Z,0
2022-11-15T02:28:19.349Z,0
2022-11-15T02:29:19.381Z,0
2022-11-15T02:30:19.385Z,0
2022-11-15T02:31:19.411Z,0
2022-11-15T02:32:19.387Z,0
2022-11-15T02:33:22.140Z,0
2022-11-15T02:34:19.393Z,0
2022-11-15T02:35:19.388Z,0
2022-11-15T02:36:19.430Z,0
2022-11-15T02:37:19.616Z,0
2022-11-15T02:38:22.357Z,0
2022-11-15T02:39:19.487Z,0
2022-11-15T02:40:19.419Z,0
2022-11-15T02:41:19.388Z,0
2022-11-15T02:42:19.373Z,0
2022-11-15T02:43:19.409Z,0
2022-11-15T02:44:22.219Z,0
2022-11-15T02:45:19.529Z,0
2022-11-15T02:46:19.375Z,0
2022-11-15T02:47:19.428Z,0
2022-11-15T02:48:19.423Z,0
2022-11-15T02:49:22.452Z,0
2022-11-15T02:50:19.423Z,0
2022-11-15T02:51:19.395Z,0
2022-11-15T02:52:19.433Z,0
2022-11-15T02:53:19.466Z,0
2022-11-15T02:54:19.394Z,0
2022-11-15T02:55:20.505Z,0
2022-11-15T02:56:19.397Z,0
2022-11-15T02:57:19.417Z,0
2022-11-15T02:58:19.407Z,0
2022-11-15T02:59:19.406Z,0
2022-11-15T03:00:20.282Z,0
2022-11-15T03:01:19.637Z,0
2022-11-15T03:02:19.406Z,0
2022-11-15T03:03:19.417Z,0
2022-11-15T03:04:19.393Z,0
2022-11-15T03:05:19.450Z,0
2022-11-15T03:06:22.165Z,0
2022-11-15T03:07:19.760Z,0
2022-11-15T03:08:19.395Z,0
2022-11-15T03:09:19.458Z,0
2022-11-15T03:10:19.444Z,0
2022-11-15T03:11:22.459Z,0
2022-11-15T03:12:19.421Z,0
2022-11-15T03:13:19.421Z,0
2022-11-15T03:14:19.474Z,0
2022-11-15T03:15:19.442Z,0
2022-11-15T03:16:19.442Z,0
2022-11-15T03:17:22.550Z,0
2022-11-15T03:18:19.425Z,0
2022-11-15T03:19:19.416Z,0
2022-11-15T03:20:19.479Z,0
2022-11-15T03:21:19.718Z,0
2022-11-15T03:22:22.186Z,0
2022-11-15T03:23:19.431Z,0
2022-11-15T03:24:25.950Z,0
2022-11-15T03:25:19.482Z,0
2022-11-15T03:26:19.525Z,0
2022-11-15T03:27:19.433Z,0
2022-11-15T03:28:19.563Z,0
2022-11-15T03:29:19.453Z,0
2022-11-15T03:30:19.465Z,0
2022-11-15T03:31:19.581Z,0
2022-11-15T03:32:19.437Z,0
2022-11-15T03:33:22.407Z,0
2022-11-15T03:34:20.472Z,0
2022-11-15T03:35:19.486Z,0
2022-11-15T03:36:19.445Z,0
2022-11-15T03:37:19.478Z,0
2022-11-15T03:38:19.851Z,0
2022-11-15T03:39:28.783Z,0
2022-11-15T03:40:19.473Z,0
2022-11-15T03:41:19.492Z,0
2022-11-15T03:42:19.667Z,0
2022-11-15T03:43:19.470Z,0
2022-11-15T03:44:22.445Z,0
2022-11-15T03:45:19.488Z,0
2022-11-15T03:46:19.376Z,0
2022-11-15T03:47:19.468Z,0
2022-11-15T03:48:19.460Z,0
2022-11-15T03:49:19.527Z,0
2022-11-15T03:50:19.498Z,0
2022-11-15T03:51:19.473Z,0
2022-11-15T03:52:19.480Z,0
2022-11-15T03:53:19.527Z,0
2022-11-15T03:54:19.475Z,0
2022-11-15T03:55:21.052Z,0
2022-11-15T03:56:19.469Z,0
2022-11-15T03:57:19.553Z,0
2022-11-15T03:58:19.481Z,0
2022-11-15T03:59:19.505Z,0
2022-11-15T04:00:19.506Z,0
2022-11-15T04:01:19.841Z,0
2022-11-15T04:02:19.594Z,0
2022-11-15T04:03:19.509Z,0
2022-11-15T04:04:19.515Z,0
2022-11-15T04:05:19.563Z,0
2022-11-15T04:06:20.663Z,0
2022-11-15T04:07:20.731Z,0
2022-11-15T04:08:19.523Z,0
2022-11-15T04:09:19.539Z,0
2022-11-15T04:10:19.531Z,0
2022-11-15T04:11:22.410Z,0
2022-11-15T04:12:19.511Z,0
2022-11-15T04:13:19.554Z,0
2022-11-15T04:14:19.503Z,0
2022-11-15T04:15:19.616Z,0
2022-11-15T04:16:19.524Z,0
2022-11-15T04:17:22.593Z,0
2022-11-15T04:18:19.506Z,0
2022-11-15T04:19:19.508Z,0
2022-11-15T04:20:19.539Z,0
2022-11-15T04:21:19.556Z,0
2022-11-15T04:22:22.656Z,0
2022-11-15T04:23:19.513Z,0
2022-11-15T04:24:19.543Z,0
2022-11-15T04:25:31.140Z,0
2022-11-15T04:26:19.548Z,0
2022-11-15T04:27:19.553Z,0
2022-11-15T04:28:19.539Z,0
2022-11-15T04:29:19.560Z,0
2022-11-15T04:30:19.549Z,0
2022-11-15T04:31:19.531Z,0
2022-11-15T04:32:19.552Z,0
2022-11-15T04:33:22.358Z,0
2022-11-15T04:34:20.552Z,0
2022-11-15T04:35:19.551Z,0
2022-11-15T04:36:19.656Z,0
2022-11-15T04:37:19.918Z,0
2022-11-15T04:38:19.628Z,0
2022-11-15T04:39:19.565Z,0
2022-11-15T04:40:19.589Z,0
2022-11-15T04:41:19.573Z,0
2022-11-15T04:42:19.635Z,0
2022-11-15T04:43:19.579Z,0
2022-11-15T04:44:19.580Z,0
2022-11-15T04:45:19.610Z,0
2022-11-15T04:46:19.397Z,0
2022-11-15T04:47:19.561Z,0
2022-11-15T04:48:19.412Z,0
2022-11-15T04:49:22.675Z,0
2022-11-15T04:50:20.134Z,0
2022-11-15T04:51:20.701Z,0
2022-11-15T04:52:20.162Z,0
2022-11-15T04:53:19.584Z,0
2022-11-15T04:54:19.580Z,0
2022-11-15T04:55:19.561Z,0
2022-11-15T04:56:19.591Z,0
2022-11-15T04:57:19.594Z,0
2022-11-15T04:58:19.578Z,0
2022-11-15T04:59:25.398Z,0
2022-11-15T05:00:22.567Z,0
2022-11-15T05:01:20.197Z,0
2022-11-15T05:02:19.628Z,0
2022-11-15T05:03:19.583Z,0
2022-11-15T05:04:19.608Z,0
2022-11-15T05:05:22.490Z,0
2022-11-15T05:06:19.578Z,0
2022-11-15T05:07:19.951Z,0
2022-11-15T05:08:19.603Z,0
2022-11-15T05:09:20.921Z,0
2022-11-15T05:10:19.629Z,0
2022-11-15T05:11:22.612Z,0
2022-11-15T05:12:19.632Z,0
2022-11-15T05:13:19.646Z,0
2022-11-15T05:14:19.608Z,0
2022-11-15T05:15:19.597Z,0
2022-11-15T05:16:22.756Z,0
2022-11-15T05:17:19.627Z,0
2022-11-15T05:18:26.171Z,0
2022-11-15T05:19:19.607Z,0
2022-11-15T05:20:19.621Z,0
2022-11-15T05:21:19.614Z,0
2022-11-15T05:22:20.655Z,0
2022-11-15T05:23:19.636Z,0
2022-11-15T05:24:19.613Z,0
2022-11-15T05:25:19.640Z,0
2022-11-15T05:26:19.635Z,0
2022-11-15T05:27:22.351Z,0
2022-11-15T05:28:19.624Z,0
2022-11-15T05:29:19.690Z,0
2022-11-15T05:30:19.619Z,0
2022-11-15T05:31:19.657Z,0
2022-11-15T05:32:19.741Z,0
2022-11-15T05:33:22.453Z,0
2022-11-15T05:34:19.699Z,0
2022-11-15T05:35:19.643Z,0
2022-11-15T05:36:19.935Z,0
2022-11-15T05:37:19.640Z,0
2022-11-15T05:38:22.472Z,0
2022-11-15T05:39:22.301Z,0
2022-11-15T05:40:19.640Z,0
2022-11-15T05:41:19.693Z,0
2022-11-15T05:42:19.658Z,0
2022-11-15T05:43:19.649Z,0
2022-11-15T05:44:22.392Z,0
2022-11-15T05:45:27.012Z,0
2022-11-15T05:46:19.646Z,0
2022-11-15T05:47:19.669Z,0
2022-11-15T05:48:19.699Z,0
2022-11-15T05:49:22.726Z,0
2022-11-15T05:50:19.663Z,0
2022-11-15T05:51:19.565Z,0
2022-11-15T05:52:19.656Z,0
2022-11-15T05:53:19.684Z,0
2022-11-15T05:54:19.749Z,0
2022-11-15T05:55:19.710Z,0
2022-11-15T05:56:20.972Z,0
2022-11-15T05:57:20.251Z,0
2022-11-15T05:58:19.725Z,0
2022-11-15T05:59:19.682Z,0
2022-11-15T06:00:22.699Z,0
2022-11-15T06:01:19.737Z,0
2022-11-15T06:02:19.996Z,0
2022-11-15T06:03:19.708Z,4
2022-11-15T06:04:19.830Z,0
2022-11-15T06:05:19.701Z,0
2022-11-15T06:06:26.387Z,4
2022-11-15T06:07:20.260Z,0
2022-11-15T06:08:19.696Z,4
2022-11-15T06:09:19.793Z,0
2022-11-15T06:10:19.674Z,4
2022-11-15T06:11:22.676Z,0
2022-11-15T06:12:23.032Z,4
2022-11-15T06:13:19.694Z,4
2022-11-15T06:14:19.695Z,4
2022-11-15T06:15:19.721Z,4
2022-11-15T06:16:19.757Z,4
2022-11-15T06:17:19.707Z,8
2022-11-15T06:18:19.716Z,8
2022-11-15T06:19:19.695Z,8
2022-11-15T06:20:20.265Z,8
2022-11-15T06:21:19.728Z,8
2022-11-15T06:22:22.980Z,8
2022-11-15T06:23:19.702Z,12
2022-11-15T06:24:19.720Z,12
2022-11-15T06:25:19.551Z,12
2022-11-15T06:26:19.868Z,16
2022-11-15T06:27:19.548Z,16
2022-11-15T06:28:19.741Z,16
2022-11-15T06:29:19.717Z,20
2022-11-15T06:30:19.725Z,20
2022-11-15T06:31:19.751Z,24
2022-11-15T06:32:19.720Z,24
2022-11-15T06:33:20.838Z,24
2022-11-15T06:34:19.780Z,28
2022-11-15T06:35:19.748Z,28
2022-11-15T06:36:24.338Z,32
2022-11-15T06:37:19.752Z,36
2022-11-15T06:38:22.776Z,36
2022-11-15T06:39:19.737Z,40
2022-11-15T06:40:19.756Z,40
2022-11-15T06:41:19.625Z,44
2022-11-15T06:42:19.768Z,52
2022-11-15T06:43:19.572Z,52
2022-11-15T06:44:22.547Z,56
2022-11-15T06:45:19.742Z,60
2022-11-15T06:46:19.784Z,60
2022-11-15T06:47:19.620Z,64
2022-11-15T06:48:19.755Z,68
2022-11-15T06:49:22.397Z,72
2022-11-15T06:50:19.736Z,76
2022-11-15T06:51:19.776Z,80
2022-11-15T06:52:19.802Z,84
2022-11-15T06:53:19.782Z,88
2022-11-15T06:54:19.776Z,88
2022-11-15T06:55:19.749Z,92
2022-11-15T06:56:19.781Z,96
2022-11-15T06:57:19.808Z,100
2022-11-15T06:58:19.770Z,108
2022-11-15T06:59:19.777Z,108
2022-11-15T07:00:21.197Z,112
2022-11-15T07:01:23.102Z,120
2022-11-15T07:02:19.773Z,120
2022-11-15T07:03:19.765Z,128
2022-11-15T07:04:19.765Z,128
2022-11-15T07:05:19.790Z,136
2022-11-15T07:06:19.789Z,140
2022-11-15T07:07:20.007Z,144
2022-11-15T07:08:19.838Z,144
2022-11-15T07:09:19.775Z,152
2022-11-15T07:10:19.658Z,152
2022-11-15T07:11:20.140Z,156
2022-11-15T07:12:19.802Z,160
2022-11-15T07:13:19.773Z,164
2022-11-15T07:14:19.789Z,168
2022-11-15T07:15:19.945Z,172
2022-11-15T07:16:22.958Z,176
2022-11-15T07:17:19.780Z,184
2022-11-15T07:18:19.788Z,188
2022-11-15T07:19:19.784Z,188
2022-11-15T07:20:19.789Z,200
2022-11-15T07:21:23.525Z,208
2022-11-15T07:22:19.781Z,288
2022-11-15T07:23:19.810Z,908
2022-11-15T07:24:19.847Z,1972
2022-11-15T07:25:20.378Z,2880
2022-11-15T07:26:20.280Z,3004
2022-11-15T07:27:23.259Z,3004
2022-11-15T07:28:20.118Z,3292
2022-11-15T07:29:19.796Z,3408
2022-11-15T07:30:22.441Z,3488
2022-11-15T07:31:19.824Z,3612
2022-11-15T07:32:22.825Z,3656
2022-11-15T07:33:19.838Z,3588
2022-11-15T07:34:19.813Z,3704
2022-11-15T07:35:19.865Z,3824
2022-11-15T07:36:19.842Z,3852
2022-11-15T07:37:19.845Z,3856
2022-11-15T07:38:22.769Z,3880
2022-11-15T07:39:20.033Z,3936
2022-11-15T07:40:19.898Z,3976
2022-11-15T07:41:19.832Z,4016
2022-11-15T07:42:19.841Z,4048
2022-11-15T07:43:22.655Z,4064
2022-11-15T07:44:19.811Z,4100
2022-11-15T07:45:19.834Z,4120
2022-11-15T07:46:19.883Z,4116
2022-11-15T07:47:19.826Z,3840
2022-11-15T07:48:19.912Z,2720
2022-11-15T07:49:22.661Z,1660
2022-11-15T07:50:22.842Z,1204
2022-11-15T07:51:21.304Z,880
2022-11-15T07:52:19.835Z,720
2022-11-15T07:53:19.881Z,652
2022-11-15T07:54:23.070Z,600
2022-11-15T07:55:19.847Z,552
2022-11-15T07:56:19.934Z,500
2022-11-15T07:57:19.884Z,468
2022-11-15T07:58:19.844Z,444
2022-11-15T07:59:19.896Z,404
2022-11-15T08:00:22.862Z,376
2022-11-15T08:01:20.559Z,356
2022-11-15T08:02:20.461Z,348
2022-11-15T08:03:19.901Z,340
2022-11-15T08:04:19.899Z,332
2022-11-15T08:05:22.912Z,332
2022-11-15T08:06:19.932Z,324
2022-11-15T08:07:20.143Z,324
2022-11-15T08:08:23.012Z,320
2022-11-15T08:09:19.972Z,316
2022-11-15T08:10:19.866Z,312
2022-11-15T08:11:23.052Z,312
2022-11-15T08:12:20.008Z,308
2022-11-15T08:13:20.263Z,308
2022-11-15T08:14:19.904Z,308
2022-11-15T08:15:19.882Z,304
2022-11-15T08:16:21.040Z,304
2022-11-15T08:17:19.889Z,300
2022-11-15T08:18:19.902Z,304
2022-11-15T08:19:19.874Z,300
2022-11-15T08:20:21.131Z,300
2022-11-15T08:21:25.122Z,296
2022-11-15T08:22:19.896Z,296
2022-11-15T08:23:19.895Z,296
2022-11-15T08:24:19.906Z,292
2022-11-15T08:25:19.898Z,296
2022-11-15T08:26:19.913Z,296
2022-11-15T08:27:23.345Z,292
2022-11-15T08:28:19.944Z,292
2022-11-15T08:29:19.893Z,292
2022-11-15T08:30:19.887Z,292
2022-11-15T08:31:19.912Z,288
2022-11-15T08:32:19.922Z,292
2022-11-15T08:33:19.916Z,292
2022-11-15T08:34:19.958Z,288
2022-11-15T08:35:21.718Z,288
2022-11-15T08:36:19.941Z,292
2022-11-15T08:37:19.906Z,288
2022-11-15T08:38:22.712Z,288
2022-11-15T08:39:19.935Z,288
2022-11-15T08:40:19.936Z,292
2022-11-15T08:41:19.923Z,288
2022-11-15T08:42:26.359Z,292
2022-11-15T08:43:20.949Z,288
2022-11-15T08:44:19.913Z,292
2022-11-15T08:45:19.921Z,288
2022-11-15T08:46:19.982Z,292
2022-11-15T08:47:19.923Z,292
2022-11-15T08:48:19.946Z,292
2022-11-15T08:49:22.841Z,296
2022-11-15T08:50:19.932Z,296
2022-11-15T08:51:19.960Z,296
2022-11-15T08:52:19.958Z,300
2022-11-15T08:53:19.984Z,304
2022-11-15T08:54:20.030Z,304
2022-11-15T08:55:26.672Z,304
2022-11-15T08:56:19.990Z,304
2022-11-15T08:57:19.952Z,308
2022-11-15T08:58:20.025Z,308
2022-11-15T08:59:19.996Z,312
2022-11-15T09:00:23.216Z,312
2022-11-15T09:01:25.600Z,316
2022-11-15T09:02:19.943Z,316
2022-11-15T09:03:19.960Z,316
2022-11-15T09:04:20.043Z,320
2022-11-15T09:05:20.084Z,320
2022-11-15T09:06:20.016Z,320
2022-11-15T09:07:20.372Z,320
2022-11-15T09:08:52.872Z,328
2022-11-15T09:09:19.956Z,324
2022-11-15T09:10:19.962Z,316
2022-11-15T09:11:23.075Z,316
2022-11-15T09:12:20.374Z,320
2022-11-15T09:13:19.970Z,312
2022-11-15T09:14:20.044Z,312
2022-11-15T09:15:19.964Z,308
2022-11-15T09:16:20.898Z,304
2022-11-15T09:17:27.208Z,308
2022-11-15T09:18:22.303Z,312
2022-11-15T09:19:20.536Z,316
2022-11-15T09:20:20.236Z,316
2022-11-15T09:21:21.043Z,308
2022-11-15T09:22:19.971Z,304
2022-11-15T09:23:20.255Z,304
2022-11-15T09:24:20.014Z,304
2022-11-15T09:25:19.987Z,300
2022-11-15T09:26:20.009Z,296
2022-11-15T09:27:21.035Z,296
2022-11-15T09:28:20.068Z,300
2022-11-15T09:29:19.981Z,300
2022-11-15T09:30:20.061Z,304
2022-11-15T09:31:25.699Z,304
2022-11-15T09:32:20.038Z,308
2022-11-15T09:33:19.999Z,308
2022-11-15T09:34:19.986Z,308
2022-11-15T09:35:19.992Z,312
2022-11-15T09:36:20.021Z,316
2022-11-15T09:37:19.993Z,312
2022-11-15T09:38:20.038Z,312
2022-11-15T09:39:20.003Z,308
2022-11-15T09:40:20.322Z,308
2022-11-15T09:41:20.055Z,308
2022-11-15T09:42:20.002Z,312
2022-11-15T09:43:22.810Z,320
2022-11-15T09:44:26.349Z,312
2022-11-15T09:45:20.037Z,308
2022-11-15T09:46:20.357Z,308
2022-11-15T09:47:20.067Z,312
2022-11-15T09:48:20.044Z,316
2022-11-15T09:49:20.035Z,312
2022-11-15T09:50:20.016Z,304
2022-11-15T09:51:20.484Z,316
2022-11-15T09:52:20.033Z,312
2022-11-15T09:53:34.450Z,304
2022-11-15T09:54:59.643Z,300
2022-11-15T09:55:27.341Z,300
2022-11-15T09:56:27.349Z,300
2022-11-15T09:57:27.324Z,300
2022-11-15T09:58:27.312Z,296
2022-11-15T09:59:28.338Z,296
2022-11-15T10:00:57.643Z,288
2022-11-15T10:01:27.783Z,292
2022-11-15T10:02:27.324Z,292
2022-11-15T10:03:27.456Z,292
2022-11-15T10:04:27.569Z,292
2022-11-15T10:05:27.344Z,288
2022-11-15T10:06:27.359Z,288
2022-11-15T10:07:27.571Z,288
2022-11-15T10:08:27.338Z,288
2022-11-15T10:09:30.757Z,284
2022-11-15T10:10:27.362Z,288
2022-11-15T10:11:45.030Z,292
2022-11-15T10:12:27.334Z,292
2022-11-15T10:13:27.338Z,292
2022-11-15T10:14:27.347Z,292
2022-11-15T10:15:27.375Z,292
2022-11-15T10:16:27.806Z,292
2022-11-15T10:17:27.390Z,288
2022-11-15T10:18:27.357Z,288
2022-11-15T10:19:27.374Z,288
2022-11-15T10:20:27.369Z,284
2022-11-15T10:21:27.395Z,284
2022-11-15T10:22:30.241Z,284
2022-11-15T10:23:27.354Z,284
2022-11-15T10:24:27.415Z,284
2022-11-15T10:25:27.386Z,284
2022-11-15T10:26:27.395Z,280
2022-11-15T10:27:30.207Z,280
2022-11-15T10:28:27.357Z,280
2022-11-15T10:29:33.229Z,280
2022-11-15T10:30:27.376Z,276
2022-11-15T10:31:27.447Z,276
2022-11-15T10:32:27.383Z,280
2022-11-15T10:33:30.426Z,276
2022-11-15T10:34:27.363Z,276
2022-11-15T10:35:27.405Z,280
2022-11-15T10:36:27.408Z,276
2022-11-15T10:37:27.373Z,276
2022-11-15T10:38:30.436Z,276
2022-11-15T10:39:27.395Z,272
2022-11-15T10:40:27.673Z,272
2022-11-15T10:41:27.400Z,272
2022-11-15T10:42:27.404Z,272
2022-11-15T10:43:27.438Z,272
2022-11-15T10:44:30.278Z,272
2022-11-15T10:45:27.409Z,272
2022-11-15T10:46:52.810Z,268
2022-11-15T10:47:27.806Z,268
2022-11-15T10:48:27.415Z,272
2022-11-15T10:49:30.470Z,272
2022-11-15T10:50:27.402Z,272
2022-11-15T10:51:27.403Z,268
2022-11-15T10:52:27.431Z,268
2022-11-15T10:53:27.418Z,268
2022-11-15T10:54:28.110Z,268
2022-11-15T10:55:30.481Z,264
2022-11-15T10:56:27.414Z,264
2022-11-15T10:57:27.488Z,264
2022-11-15T10:58:27.429Z,264
2022-11-15T10:59:27.452Z,260
2022-11-15T11:00:30.268Z,264
2022-11-15T11:01:27.742Z,264
2022-11-15T11:02:27.460Z,260
2022-11-15T11:03:27.447Z,260
2022-11-15T11:04:27.431Z,260
2022-11-15T11:05:27.491Z,260
2022-11-15T11:06:30.202Z,260
2022-11-15T11:07:28.008Z,260
2022-11-15T11:08:27.428Z,260
2022-11-15T11:09:27.480Z,260
2022-11-15T11:11:05.639Z,260
2022-11-15T11:11:30.457Z,260
2022-11-15T11:12:27.469Z,256
2022-11-15T11:13:27.471Z,252
2022-11-15T11:14:27.452Z,248
2022-11-15T11:15:27.535Z,252
2022-11-15T11:16:27.449Z,260
2022-11-15T11:17:30.473Z,260
2022-11-15T11:18:27.436Z,256
2022-11-15T11:19:27.507Z,256
2022-11-15T11:20:27.449Z,256
2022-11-15T11:21:42.270Z,256
2022-11-15T11:22:28.591Z,252
2022-11-15T11:23:27.486Z,256
2022-11-15T11:24:27.458Z,260
2022-11-15T11:25:27.484Z,260
2022-11-15T11:26:27.461Z,256
2022-11-15T11:27:27.762Z,260
2022-11-15T11:28:27.459Z,260
2022-11-15T11:29:27.465Z,260
2022-11-15T11:30:27.471Z,260
2022-11-15T11:31:27.510Z,256
2022-11-15T11:32:27.499Z,256
2022-11-15T11:33:27.544Z,256
2022-11-15T11:34:27.531Z,264
2022-11-15T11:35:27.518Z,244
2022-11-15T11:36:27.485Z,248
2022-11-15T11:37:27.543Z,248
2022-11-15T11:38:27.474Z,240
2022-11-15T11:39:27.489Z,256
2022-11-15T11:40:27.486Z,252
2022-11-15T11:41:27.481Z,252
2022-11-15T11:42:27.516Z,248
2022-11-15T11:43:27.506Z,192
2022-11-15T11:44:27.490Z,180
2022-11-15T11:45:27.524Z,188
2022-11-15T11:46:27.491Z,208
2022-11-15T11:47:27.567Z,236
2022-11-15T11:48:27.489Z,236
2022-11-15T11:49:30.497Z,240
2022-11-15T11:50:27.501Z,248
2022-11-15T11:51:27.532Z,256
2022-11-15T11:52:27.539Z,260
2022-11-15T11:53:27.584Z,256
2022-11-15T11:54:27.504Z,260
2022-11-15T11:55:27.530Z,280
2022-11-15T11:56:27.513Z,280
2022-11-15T11:57:27.543Z,284
2022-11-15T11:58:27.517Z,268
2022-11-15T11:59:27.552Z,260
2022-11-15T12:00:27.526Z,236
2022-11-15T12:01:27.541Z,232
2022-11-15T12:02:28.203Z,224
2022-11-15T12:03:27.662Z,232
2022-11-15T12:04:27.556Z,244
2022-11-15T12:05:30.556Z,264
2022-11-15T12:06:27.541Z,296
2022-11-15T12:07:27.949Z,284
2022-11-15T12:08:27.537Z,288
2022-11-15T12:09:27.589Z,292
2022-11-15T12:10:27.538Z,296
2022-11-15T12:11:27.570Z,280
2022-11-15T12:12:27.568Z,272
2022-11-15T12:13:27.533Z,260
2022-11-15T12:14:27.542Z,256
2022-11-15T12:15:27.562Z,256
2022-11-15T12:16:30.372Z,252
2022-11-15T12:17:28.629Z,252
2022-11-15T12:18:27.559Z,248
2022-11-15T12:19:27.607Z,248
2022-11-15T12:20:27.590Z,244
2022-11-15T12:21:33.868Z,244
2022-11-15T12:22:27.594Z,244
2022-11-15T12:23:27.679Z,248
2022-11-15T12:24:27.568Z,252
2022-11-15T12:25:27.835Z,256
2022-11-15T12:26:27.599Z,256
2022-11-15T12:27:33.437Z,252
2022-11-15T12:28:27.811Z,252
2022-11-15T12:29:27.616Z,256
2022-11-15T12:30:27.572Z,252
2022-11-15T12:31:27.602Z,260
2022-11-15T12:32:27.625Z,280
2022-11-15T12:33:27.587Z,280
2022-11-15T12:34:27.581Z,284
2022-11-15T12:35:27.656Z,288
2022-11-15T12:36:27.620Z,288
2022-11-15T12:37:28.655Z,288
2022-11-15T12:38:30.904Z,288
2022-11-15T12:39:27.647Z,288
2022-11-15T12:40:27.623Z,288
2022-11-15T12:41:27.644Z,288
2022-11-15T12:42:27.706Z,284
2022-11-15T12:43:30.392Z,280
2022-11-15T12:44:27.603Z,280
2022-11-15T12:45:27.625Z,276
2022-11-15T12:46:27.603Z,272
2022-11-15T12:47:30.229Z,264
2022-11-15T12:48:27.607Z,264
2022-11-15T12:49:30.745Z,256
2022-11-15T12:50:27.626Z,252
2022-11-15T12:51:27.658Z,244
2022-11-15T12:52:27.647Z,240
2022-11-15T12:53:27.626Z,232
2022-11-15T12:54:30.689Z,224
2022-11-15T12:55:27.627Z,220
2022-11-15T12:56:27.620Z,212
2022-11-15T12:57:27.689Z,208
2022-11-15T12:58:27.845Z,208
2022-11-15T12:59:27.645Z,208
2022-11-15T13:00:32.854Z,204
2022-11-15T13:01:30.791Z,200
2022-11-15T13:02:27.673Z,200
2022-11-15T13:03:27.635Z,200
2022-11-15T13:04:27.664Z,196
2022-11-15T13:05:30.536Z,192
2022-11-15T13:06:27.644Z,192
2022-11-15T13:07:28.019Z,188
2022-11-15T13:08:27.637Z,184
2022-11-15T13:09:27.659Z,184
2022-11-15T13:10:34.370Z,184
2022-11-15T13:11:30.679Z,180
2022-11-15T13:12:27.696Z,176
2022-11-15T13:13:27.781Z,172
2022-11-15T13:14:27.643Z,172
2022-11-15T13:15:27.647Z,168
2022-11-15T13:16:30.765Z,164
2022-11-15T13:17:27.698Z,164
2022-11-15T13:18:27.654Z,164
2022-11-15T13:19:27.735Z,164
2022-11-15T13:20:27.680Z,160
2022-11-15T13:21:27.667Z,160
2022-11-15T13:22:30.708Z,156
2022-11-15T13:23:27.685Z,156
2022-11-15T13:24:27.721Z,156
2022-11-15T13:25:27.713Z,156
2022-11-15T13:26:27.749Z,152
2022-11-15T13:27:30.948Z,156
2022-11-15T13:28:27.686Z,156
2022-11-15T13:29:27.747Z,160
2022-11-15T13:30:27.817Z,164
2022-11-15T13:31:27.685Z,164
2022-11-15T13:32:27.701Z,168
2022-11-15T13:33:35.666Z,172
2022-11-15T13:34:57.676Z,172
2022-11-15T13:35:27.702Z,176
2022-11-15T13:36:27.687Z,180
2022-11-15T13:37:27.728Z,180
2022-11-15T13:38:33.999Z,184
2022-11-15T13:39:27.722Z,184
2022-11-15T13:40:27.867Z,192
2022-11-15T13:41:27.701Z,212
2022-11-15T13:42:27.797Z,224
2022-11-15T13:43:27.714Z,220
2022-11-15T13:44:30.818Z,208
2022-11-15T13:45:27.758Z,224
2022-11-15T13:46:27.707Z,208
2022-11-15T13:47:27.729Z,228
2022-11-15T13:48:27.704Z,228
2022-11-15T13:49:28.802Z,228
2022-11-15T13:50:27.745Z,224
2022-11-15T13:51:27.770Z,228
2022-11-15T13:52:27.767Z,224
2022-11-15T13:53:27.854Z,228
2022-11-15T13:54:28.097Z,228
2022-11-15T13:55:27.775Z,228
2022-11-15T13:56:27.750Z,220
2022-11-15T13:57:27.432Z,216
2022-11-15T13:58:39.294Z,208
2022-11-15T13:59:27.580Z,208
2022-11-15T14:00:27.748Z,208
2022-11-15T14:01:28.077Z,200
2022-11-15T14:02:27.765Z,200
2022-11-15T14:03:27.410Z,196
2022-11-15T14:04:27.251Z,192
2022-11-15T14:05:27.274Z,180
2022-11-15T14:06:27.837Z,176
2022-11-15T14:07:28.083Z,168
2022-11-15T14:08:27.815Z,156
2022-11-15T14:09:28.045Z,148
2022-11-15T14:10:27.794Z,140
2022-11-15T14:11:27.743Z,132
2022-11-15T14:12:27.771Z,128